Robijn — PBEJ — position and weather

sailwx.info

Track history (hours):
 
Tides and Currents Weather Stations Pressure Air Temp Water Temp Dewpoint Dewpoint Depression Visibility Wind Speed Wind Dir Waves Ship Positions

Robijn

Last reported at 2016-May-27 16:25 UTC. Time now 2016-May-27 20:06 UTC.
Position N 50°18' W 001°13'.

Length 90 m; draft 5.3 m.

Type: Cargo ship. MMSI: 245909000.

Date/timePositionNaut miles runAvg speedWind from/ knotsBaromVisibWave heightAir tempDewpointWater temp
2016-May-27 16:25N 50°18' W 001°13'1112.5
2016-May-27 15:33N 50°21' W 000°57'1110.9
2016-May-27 14:33N 50°25' W 000°41'10 9.5
2016-May-27 13:33N 50°27' W 000°26'9 9.1
2016-May-27 12:33N 50°30' W 000°12'9 8.9
2016-May-27 11:33N 50°32' E 000°01'9 9.2
2016-May-27 10:33N 50°35' E 000°15'3311.0
2016-May-27 07:31N 50°51' E 001°01'1111.3
2016-May-27 06:33N 50°58' E 001°15'1010.3
2016-May-27 05:33N 51°04' E 001°27'9 8.6
2016-May-27 04:33N 51°10' E 001°37'8 8.0
2016-May-27 03:33N 51°16' E 001°47'9 9.0
2016-May-27 02:33N 51°24' E 001°53'1010.3
2016-May-27 01:33N 51°32' E 002°04'1211.5
2016-May-27 00:33N 51°40' E 002°16'1212.1
2016-May-26 23:34N 51°49' E 002°29'1212.2
2016-May-26 22:33N 51°59' E 002°41'2311.2
2016-May-26 20:33N 52°16' E 003°06'1010.1
2016-May-26 19:33N 52°23' E 003°17'10 9.7
2016-May-26 18:33N 52°28' E 003°31'10 9.4
2016-May-26 17:33N 52°31' E 003°46'10 9.7
2016-May-26 16:33N 52°31' E 004°01'1010.3
2016-May-26 15:33N 52°30' E 004°18'1010.4
2016-May-26 14:33N 52°28' E 004°35'4 3.6
2016-May-26 13:33N 52°27' E 004°41'8 7.8
2016-May-26 12:34N 52°24' E 004°52'1 0.5
2016-May-26 11:33N 52°24' E 004°51'0 0.0
2016-May-26 10:33N 52°24' E 004°51'0 0.0
2016-May-26 09:33N 52°24' E 004°51'0 0.0
2016-May-26 08:33N 52°24' E 004°51'0 0.0
2016-May-26 07:33N 52°24' E 004°51'0 0.0
2016-May-26 06:33N 52°24' E 004°51'0 0.0
2016-May-26 05:33N 52°24' E 004°51'0 0.0
2016-May-26 04:33N 52°24' E 004°51'0 0.0
2016-May-26 03:33N 52°24' E 004°51'0 0.0
2016-May-26 02:33N 52°24' E 004°51'0 0.0
2016-May-26 01:33N 52°24' E 004°51'0 0.0
2016-May-26 00:33N 52°24' E 004°51'0 0.0
2016-May-25 23:33N 52°24' E 004°51'0 0.0
2016-May-25 22:33N 52°24' E 004°51'0 0.0
2016-May-25 21:30N 52°24' E 004°51'0 0.0
2016-May-25 20:33N 52°24' E 004°51'0 0.0
2016-May-25 19:33N 52°24' E 004°51'0 0.0
2016-May-25 18:33N 52°24' E 004°51'0 0.0
2016-May-25 17:33N 52°24' E 004°51'0 0.0
2016-May-25 16:33N 52°24' E 004°52'0 0.0
2016-May-25 15:33N 52°24' E 004°52'0 0.0
2016-May-25 14:33N 52°24' E 004°51'0 0.0
2016-May-25 13:33N 52°24' E 004°52'0 0.0
2016-May-25 12:33N 52°24' E 004°51'0 0.0
2016-May-25 11:33N 52°24' E 004°52'0 0.0
2016-May-25 10:33N 52°24' E 004°52'0 0.0
2016-May-25 09:33N 52°24' E 004°52'0 0.0
2016-May-25 08:33N 52°24' E 004°52'0 0.0
2016-May-25 07:33N 52°24' E 004°51'0 0.0
2016-May-25 06:33N 52°24' E 004°52'0 0.0
2016-May-25 05:33N 52°24' E 004°52'1 0.5
2016-May-25 04:32N 52°24' E 004°52'0 0.0
2016-May-25 03:32N 52°24' E 004°52'0 0.0
2016-May-25 02:32N 52°24' E 004°52'0 0.0
2016-May-25 01:32N 52°24' E 004°52'0 0.0
2016-May-25 00:32N 52°24' E 004°52'0 0.0
2016-May-24 23:32N 52°24' E 004°52'0 0.0
2016-May-24 22:32N 52°24' E 004°52'0 0.0
2016-May-24 21:32N 52°24' E 004°52'0 0.0
2016-May-24 20:32N 52°24' E 004°52'0 0.0
2016-May-24 19:32N 52°24' E 004°52'0 0.0
2016-May-24 18:32N 52°24' E 004°52'0 0.0
2016-May-24 17:32N 52°24' E 004°52'0 0.0
2016-May-24 16:32N 52°24' E 004°52'0 0.0
2016-May-24 15:32N 52°24' E 004°52'0 0.0
2016-May-24 14:32N 52°24' E 004°52'0 0.0
2016-May-24 13:32N 52°24' E 004°52'1 1.2
2016-May-24 12:34N 52°25' E 004°51'1 0.9
2016-May-24 11:32N 52°25' E 004°50'0 0.0
2016-May-24 10:32N 52°25' E 004°50'0 0.0
2016-May-24 09:32N 52°25' E 004°50'0 0.0
2016-May-24 08:32N 52°25' E 004°50'0 0.0
2016-May-24 07:29N 52°25' E 004°50'0 0.0
2016-May-24 06:32N 52°25' E 004°50'0 0.0
2016-May-24 05:32N 52°25' E 004°50'0 0.0
2016-May-24 04:32N 52°25' E 004°50'0 0.0
2016-May-24 03:32N 52°25' E 004°50'0 0.0
2016-May-24 02:32N 52°25' E 004°50'0 0.0
2016-May-24 01:32N 52°25' E 004°50'0 0.0
2016-May-24 00:32N 52°25' E 004°50'0 0.0
2016-May-23 23:32N 52°25' E 004°50'0 0.0
2016-May-23 22:32N 52°25' E 004°50'0 0.0
2016-May-23 21:32N 52°25' E 004°50'0 0.0
2016-May-23 20:32N 52°25' E 004°50'0 0.0
2016-May-23 19:29N 52°25' E 004°50'0 0.0
2016-May-23 18:32N 52°25' E 004°50'0 0.0
2016-May-23 17:32N 52°25' E 004°50'0 0.0
2016-May-23 16:32N 52°25' E 004°50'0 0.0
2016-May-23 15:32N 52°25' E 004°50'0 0.5
2016-May-23 14:34N 52°25' E 004°51'1 1.4
2016-May-23 13:33N 52°24' E 004°52'0 0.0
2016-May-23 12:33N 52°24' E 004°52'0 0.0
2016-May-23 11:33N 52°24' E 004°52'0 0.0
2016-May-23 10:33N 52°24' E 004°52'0 0.0
2016-May-23 09:33N 52°24' E 004°52'0 0.0
2016-May-23 08:33N 52°24' E 004°52'0 0.0
2016-May-23 07:33N 52°24' E 004°52'0 0.0
2016-May-23 06:33N 52°24' E 004°52'0 0.0
2016-May-23 05:33N 52°24' E 004°52'0 0.0
2016-May-23 04:33N 52°24' E 004°52'0 0.0
2016-May-23 03:33N 52°24' E 004°52'0 0.0
2016-May-23 02:33N 52°24' E 004°52'0 0.0
2016-May-23 01:34N 52°24' E 004°52'0 0.0
2016-May-23 00:33N 52°24' E 004°52'0 0.0
2016-May-22 23:33N 52°24' E 004°52'0 0.0
2016-May-22 22:34N 52°24' E 004°52'0 0.0
2016-May-22 21:33N 52°24' E 004°52'0 0.0
2016-May-22 20:33N 52°24' E 004°52'0 0.0
2016-May-22 19:33N 52°24' E 004°52'0 0.0
2016-May-22 18:33N 52°24' E 004°52'0 0.0
2016-May-22 17:33N 52°24' E 004°52'0 0.0
2016-May-22 16:34N 52°24' E 004°52'0 0.0
2016-May-22 15:33N 52°24' E 004°52'0 0.0
2016-May-22 14:33N 52°24' E 004°52'0 0.0
2016-May-22 13:33N 52°24' E 004°52'0 0.0
2016-May-22 12:33N 52°24' E 004°52'0 0.0
2016-May-22 11:33N 52°24' E 004°52'1 1.2
2016-May-22 10:34N 52°25' E 004°51'11 5.3
2016-May-22 08:34N 52°28' E 004°34'9 8.7
2016-May-22 07:33N 52°28' E 004°20'1111.4
2016-May-22 06:33N 52°27' E 004°01'1111.1
2016-May-22 05:32N 52°22' E 003°45'6512.2
2016-May-22 00:15N 51°38' E 002°28'1012.4
2016-May-21 23:28N 51°30' E 002°18'1111.7
2016-May-21 22:33N 51°21' E 002°10'1110.8
2016-May-21 21:33N 51°13' E 001°60'10 9.9
2016-May-21 20:34N 51°07' E 001°47'9 8.9
2016-May-21 19:34N 51°01' E 001°37'55 9.0
2016-May-21 13:26N 50°26' E 000°30'910.1
2016-May-21 12:33N 50°24' E 000°16'1010.4
2016-May-21 11:33N 50°22' E 000°00'1110.9
2016-May-21 10:33N 50°19' W 000°16'10012.4
2016-May-21 02:33N 49°52' W 002°46'10 9.5
2016-May-21 01:32N 49°51' W 003°01'9 9.5
2016-May-21 00:33N 49°52' W 003°15'10 9.6
2016-May-20 23:33N 49°52' W 003°30'1010.0
2016-May-20 22:33N 49°53' W 003°45'1110.3
2016-May-20 21:27N 49°53' W 004°03'1010.6
2016-May-20 20:32N 49°53' W 004°18'1110.8
2016-May-20 19:30N 49°53' W 004°36'1111.0
2016-May-20 18:31N 49°54' W 004°52'45 8.9
2016-May-20 13:24N 50°08' W 005°60'8 9.1
2016-May-20 12:33N 50°16' W 006°00'1010.0
2016-May-20 11:33N 50°26' W 005°60'1110.5
2016-May-20 10:29N 50°37' W 006°00'1110.8
2016-May-20 09:30N 50°48' W 005°60'1110.8
2016-May-20 08:31N 50°58' W 005°59'6310.0
2016-May-20 02:09N 52°02' W 005°53'711.8
2016-May-20 01:33N 52°09' W 005°53'1212.5
2016-May-20 00:33N 52°21' W 005°52'1312.8
2016-May-19 23:30N 52°34' W 005°52'2 0.0
2016-May-18 05:33N 52°36' W 005°50'1211.7
2016-May-18 04:33N 52°25' W 005°49'1111.1
2016-May-18 03:33N 52°14' W 005°49'51 7.3
2016-May-17 20:33N 51°31' W 005°01'2210.5
2016-May-17 18:29N 51°30' W 004°27'  
Track history (hours):
 
Tides and Currents Weather Stations Pressure Air Temp Water Temp Dewpoint Dewpoint Depression Visibility Wind Speed Wind Dir Waves Ship Positions

Robijn

Last reported at 2016-May-27 16:25 UTC. Time now 2016-May-27 20:06 UTC.
Position N 50°18' W 001°13'.

Length 90 m; draft 5.3 m.

Type: Cargo ship. MMSI: 245909000.

Date/timePositionNaut miles runAvg speedWind from/ knotsBaromVisibWave heightAir tempDewpointWater temp
2016-May-27 16:25N 50°18' W 001°13'1112.5
2016-May-27 15:33N 50°21' W 000°57'1110.9
2016-May-27 14:33N 50°25' W 000°41'10 9.5
2016-May-27 13:33N 50°27' W 000°26'9 9.1
2016-May-27 12:33N 50°30' W 000°12'9 8.9
2016-May-27 11:33N 50°32' E 000°01'9 9.2
2016-May-27 10:33N 50°35' E 000°15'3311.0
2016-May-27 07:31N 50°51' E 001°01'1111.3
2016-May-27 06:33N 50°58' E 001°15'1010.3
2016-May-27 05:33N 51°04' E 001°27'9 8.6
2016-May-27 04:33N 51°10' E 001°37'8 8.0
2016-May-27 03:33N 51°16' E 001°47'9 9.0
2016-May-27 02:33N 51°24' E 001°53'1010.3
2016-May-27 01:33N 51°32' E 002°04'1211.5
2016-May-27 00:33N 51°40' E 002°16'1212.1
2016-May-26 23:34N 51°49' E 002°29'1212.2
2016-May-26 22:33N 51°59' E 002°41'2311.2
2016-May-26 20:33N 52°16' E 003°06'1010.1
2016-May-26 19:33N 52°23' E 003°17'10 9.7
2016-May-26 18:33N 52°28' E 003°31'10 9.4
2016-May-26 17:33N 52°31' E 003°46'10 9.7
2016-May-26 16:33N 52°31' E 004°01'1010.3
2016-May-26 15:33N 52°30' E 004°18'1010.4
2016-May-26 14:33N 52°28' E 004°35'4 3.6
2016-May-26 13:33N 52°27' E 004°41'8 7.8
2016-May-26 12:34N 52°24' E 004°52'1 0.5
2016-May-26 11:33N 52°24' E 004°51'0 0.0
2016-May-26 10:33N 52°24' E 004°51'0 0.0
2016-May-26 09:33N 52°24' E 004°51'0 0.0
2016-May-26 08:33N 52°24' E 004°51'0 0.0
2016-May-26 07:33N 52°24' E 004°51'0 0.0
2016-May-26 06:33N 52°24' E 004°51'0 0.0
2016-May-26 05:33N 52°24' E 004°51'0 0.0
2016-May-26 04:33N 52°24' E 004°51'0 0.0
2016-May-26 03:33N 52°24' E 004°51'0 0.0
2016-May-26 02:33N 52°24' E 004°51'0 0.0
2016-May-26 01:33N 52°24' E 004°51'0 0.0
2016-May-26 00:33N 52°24' E 004°51'0 0.0
2016-May-25 23:33N 52°24' E 004°51'0 0.0
2016-May-25 22:33N 52°24' E 004°51'0 0.0
2016-May-25 21:30N 52°24' E 004°51'0 0.0
2016-May-25 20:33N 52°24' E 004°51'0 0.0
2016-May-25 19:33N 52°24' E 004°51'0 0.0
2016-May-25 18:33N 52°24' E 004°51'0 0.0
2016-May-25 17:33N 52°24' E 004°51'0 0.0
2016-May-25 16:33N 52°24' E 004°52'0 0.0
2016-May-25 15:33N 52°24' E 004°52'0 0.0
2016-May-25 14:33N 52°24' E 004°51'0 0.0
2016-May-25 13:33N 52°24' E 004°52'0 0.0
2016-May-25 12:33N 52°24' E 004°51'0 0.0
2016-May-25 11:33N 52°24' E 004°52'0 0.0
2016-May-25 10:33N 52°24' E 004°52'0 0.0
2016-May-25 09:33N 52°24' E 004°52'0 0.0
2016-May-25 08:33N 52°24' E 004°52'0 0.0
2016-May-25 07:33N 52°24' E 004°51'0 0.0
2016-May-25 06:33N 52°24' E 004°52'0 0.0
2016-May-25 05:33N 52°24' E 004°52'1 0.5
2016-May-25 04:32N 52°24' E 004°52'0 0.0
2016-May-25 03:32N 52°24' E 004°52'0 0.0
2016-May-25 02:32N 52°24' E 004°52'0 0.0
2016-May-25 01:32N 52°24' E 004°52'0 0.0
2016-May-25 00:32N 52°24' E 004°52'0 0.0
2016-May-24 23:32N 52°24' E 004°52'0 0.0
2016-May-24 22:32N 52°24' E 004°52'0 0.0
2016-May-24 21:32N 52°24' E 004°52'0 0.0
2016-May-24 20:32N 52°24' E 004°52'0 0.0
2016-May-24 19:32N 52°24' E 004°52'0 0.0
2016-May-24 18:32N 52°24' E 004°52'0 0.0
2016-May-24 17:32N 52°24' E 004°52'0 0.0
2016-May-24 16:32N 52°24' E 004°52'0 0.0
2016-May-24 15:32N 52°24' E 004°52'0 0.0
2016-May-24 14:32N 52°24' E 004°52'0 0.0
2016-May-24 13:32N 52°24' E 004°52'1 1.2
2016-May-24 12:34N 52°25' E 004°51'1 0.9
2016-May-24 11:32N 52°25' E 004°50'0 0.0
2016-May-24 10:32N 52°25' E 004°50'0 0.0
2016-May-24 09:32N 52°25' E 004°50'0 0.0
2016-May-24 08:32N 52°25' E 004°50'0 0.0
2016-May-24 07:29N 52°25' E 004°50'0 0.0
2016-May-24 06:32N 52°25' E 004°50'0 0.0
2016-May-24 05:32N 52°25' E 004°50'0 0.0
2016-May-24 04:32N 52°25' E 004°50'0 0.0
2016-May-24 03:32N 52°25' E 004°50'0 0.0
2016-May-24 02:32N 52°25' E 004°50'0 0.0
2016-May-24 01:32N 52°25' E 004°50'0 0.0
2016-May-24 00:32N 52°25' E 004°50'0 0.0
2016-May-23 23:32N 52°25' E 004°50'0 0.0
2016-May-23 22:32N 52°25' E 004°50'0 0.0
2016-May-23 21:32N 52°25' E 004°50'0 0.0
2016-May-23 20:32N 52°25' E 004°50'0 0.0
2016-May-23 19:29N 52°25' E 004°50'0 0.0
2016-May-23 18:32N 52°25' E 004°50'0 0.0
2016-May-23 17:32N 52°25' E 004°50'0 0.0
2016-May-23 16:32N 52°25' E 004°50'0 0.0
2016-May-23 15:32N 52°25' E 004°50'0 0.5
2016-May-23 14:34N 52°25' E 004°51'1 1.4
2016-May-23 13:33N 52°24' E 004°52'0 0.0
2016-May-23 12:33N 52°24' E 004°52'0 0.0
2016-May-23 11:33N 52°24' E 004°52'0 0.0
2016-May-23 10:33N 52°24' E 004°52'0 0.0
2016-May-23 09:33N 52°24' E 004°52'0 0.0
2016-May-23 08:33N 52°24' E 004°52'0 0.0
2016-May-23 07:33N 52°24' E 004°52'0 0.0
2016-May-23 06:33N 52°24' E 004°52'0 0.0
2016-May-23 05:33N 52°24' E 004°52'0 0.0
2016-May-23 04:33N 52°24' E 004°52'0 0.0
2016-May-23 03:33N 52°24' E 004°52'0 0.0
2016-May-23 02:33N 52°24' E 004°52'0 0.0
2016-May-23 01:34N 52°24' E 004°52'0 0.0
2016-May-23 00:33N 52°24' E 004°52'0 0.0
2016-May-22 23:33N 52°24' E 004°52'0 0.0
2016-May-22 22:34N 52°24' E 004°52'0 0.0
2016-May-22 21:33N 52°24' E 004°52'0 0.0
2016-May-22 20:33N 52°24' E 004°52'0 0.0
2016-May-22 19:33N 52°24' E 004°52'0 0.0
2016-May-22 18:33N 52°24' E 004°52'0 0.0
2016-May-22 17:33N 52°24' E 004°52'0 0.0
2016-May-22 16:34N 52°24' E 004°52'0 0.0
2016-May-22 15:33N 52°24' E 004°52'0 0.0
2016-May-22 14:33N 52°24' E 004°52'0 0.0
2016-May-22 13:33N 52°24' E 004°52'0 0.0
2016-May-22 12:33N 52°24' E 004°52'0 0.0
2016-May-22 11:33N 52°24' E 004°52'1 1.2
2016-May-22 10:34N 52°25' E 004°51'11 5.3
2016-May-22 08:34N 52°28' E 004°34'9 8.7
2016-May-22 07:33N 52°28' E 004°20'1111.4
2016-May-22 06:33N 52°27' E 004°01'1111.1
2016-May-22 05:32N 52°22' E 003°45'6512.2
2016-May-22 00:15N 51°38' E 002°28'1012.4
2016-May-21 23:28N 51°30' E 002°18'1111.7
2016-May-21 22:33N 51°21' E 002°10'1110.8
2016-May-21 21:33N 51°13' E 001°60'10 9.9
2016-May-21 20:34N 51°07' E 001°47'9 8.9
2016-May-21 19:34N 51°01' E 001°37'55 9.0
2016-May-21 13:26N 50°26' E 000°30'910.1
2016-May-21 12:33N 50°24' E 000°16'1010.4
2016-May-21 11:33N 50°22' E 000°00'1110.9
2016-May-21 10:33N 50°19' W 000°16'10012.4
2016-May-21 02:33N 49°52' W 002°46'10 9.5
2016-May-21 01:32N 49°51' W 003°01'9 9.5
2016-May-21 00:33N 49°52' W 003°15'10 9.6
2016-May-20 23:33N 49°52' W 003°30'1010.0
2016-May-20 22:33N 49°53' W 003°45'1110.3
2016-May-20 21:27N 49°53' W 004°03'1010.6
2016-May-20 20:32N 49°53' W 004°18'1110.8
2016-May-20 19:30N 49°53' W 004°36'1111.0
2016-May-20 18:31N 49°54' W 004°52'45 8.9
2016-May-20 13:24N 50°08' W 005°60'8 9.1
2016-May-20 12:33N 50°16' W 006°00'1010.0
2016-May-20 11:33N 50°26' W 005°60'1110.5
2016-May-20 10:29N 50°37' W 006°00'1110.8
2016-May-20 09:30N 50°48' W 005°60'1110.8
2016-May-20 08:31N 50°58' W 005°59'6310.0
2016-May-20 02:09N 52°02' W 005°53'711.8
2016-May-20 01:33N 52°09' W 005°53'1212.5
2016-May-20 00:33N 52°21' W 005°52'1312.8
2016-May-19 23:30N 52°34' W 005°52'2 0.0
2016-May-18 05:33N 52°36' W 005°50'1211.7
2016-May-18 04:33N 52°25' W 005°49'1111.1
2016-May-18 03:33N 52°14' W 005°49'51 7.3
2016-May-17 20:33N 51°31' W 005°01'2210.5
2016-May-17 18:29N 51°30' W 004°27'  

Dump ship's entire track history